地図

経路データ

SID SEASON NUMBER BASIN SUBBASIN NAME ISO_TIME NATURE LAT LON WMO_WIND WMO_PRES WMO_AGENCY TRACK_TYPE DIST2LAND LANDFALL IFLAG USA_AGENCY USA_ATCF_ID USA_LAT USA_LON USA_RECORD USA_STATUS USA_WIND USA_PRES USA_SSHS USA_R34_NE USA_R34_SE USA_R34_SW USA_R34_NW USA_R50_NE USA_R50_SE USA_R50_SW USA_R50_NW USA_R64_NE USA_R64_SE USA_R64_SW USA_R64_NW USA_POCI USA_ROCI USA_RMW USA_EYE TOKYO_LAT TOKYO_LON TOKYO_GRADE TOKYO_WIND TOKYO_PRES TOKYO_R50_DIR TOKYO_R50_LONG TOKYO_R50_SHORT TOKYO_R30_DIR TOKYO_R30_LONG TOKYO_R30_SHORT TOKYO_LAND CMA_LAT CMA_LON CMA_CAT CMA_WIND CMA_PRES HKO_LAT HKO_LON HKO_CAT HKO_WIND HKO_PRES NEWDELHI_LAT NEWDELHI_LON NEWDELHI_GRADE NEWDELHI_WIND NEWDELHI_PRES NEWDELHI_CI NEWDELHI_DP NEWDELHI_POCI REUNION_LAT REUNION_LON REUNION_TYPE REUNION_WIND REUNION_PRES REUNION_TNUM REUNION_CI REUNION_RMW REUNION_R34_NE REUNION_R34_SE REUNION_R34_SW REUNION_R34_NW REUNION_R50_NE REUNION_R50_SE REUNION_R50_SW REUNION_R50_NW REUNION_R64_NE REUNION_R64_SE REUNION_R64_SW REUNION_R64_NW BOM_LAT BOM_LON BOM_TYPE BOM_WIND BOM_PRES BOM_TNUM BOM_CI BOM_RMW BOM_R34_NE BOM_R34_SE BOM_R34_SW BOM_R34_NW BOM_R50_NE BOM_R50_SE BOM_R50_SW BOM_R50_NW BOM_R64_NE BOM_R64_SE BOM_R64_SW BOM_R64_NW BOM_ROCI BOM_POCI BOM_EYE BOM_POS_METHOD BOM_PRES_METHOD NADI_LAT NADI_LON NADI_CAT NADI_WIND NADI_PRES WELLINGTON_LAT WELLINGTON_LON WELLINGTON_WIND WELLINGTON_PRES DS824_LAT DS824_LON DS824_STAGE DS824_WIND DS824_PRES TD9636_LAT TD9636_LON TD9636_STAGE TD9636_WIND TD9636_PRES TD9635_LAT TD9635_LON TD9635_WIND TD9635_PRES TD9635_ROCI NEUMANN_LAT NEUMANN_LON NEUMANN_CLASS NEUMANN_WIND NEUMANN_PRES MLC_LAT MLC_LON MLC_CLASS MLC_WIND MLC_PRES USA_GUST BOM_GUST BOM_GUST_PER REUNION_GUST REUNION_GUST_PER USA_SEAHGT USA_SEARAD_NE USA_SEARAD_SE USA_SEARAD_SW USA_SEARAD_NW STORM_SPEED STORM_DIR
1966265N10325 1966 85 NA NA INEZ 1966-09-21 12:00:00 TS 9.90000 -35.1000 25 hurdat_atl main 1525 1522 O_____________ hurdat_atl AL091966 9.90000 -35.1000 TD 25 -1 10 300
1966265N10325 1966 85 NA NA INEZ 1966-09-21 15:00:00 TS 10.1476 -35.5324 main 1532 1532 P_____________ AL091966 10.1476 -35.5324 TD 25 -1 10 299
1966265N10325 1966 85 NA NA INEZ 1966-09-21 18:00:00 TS 10.4000 -36.0000 25 hurdat_atl main 1548 1545 O_____________ hurdat_atl AL091966 10.4000 -36.0000 TD 25 -1 11 298
1966265N10325 1966 85 NA NA INEZ 1966-09-21 21:00:00 TS 10.6574 -36.5275 main 1567 1562 P_____________ AL091966 10.6574 -36.5275 TD 25 -1 12 295
1966265N10325 1966 85 NA NA INEZ 1966-09-22 00:00:00 TS 10.9000 -37.1000 25 hurdat_atl main 1574 1572 O_____________ hurdat_atl AL091966 10.9000 -37.1000 TD 25 -1 12 291
1966265N10325 1966 85 NA NA INEZ 1966-09-22 03:00:00 TS 11.1075 -37.7001 main 1585 1584 P_____________ AL091966 11.1075 -37.7001 TD 25 -1 12 289
1966265N10325 1966 85 NA NA INEZ 1966-09-22 06:00:00 TS 11.3000 -38.3000 25 hurdat_atl main 1599 1595 O_____________ hurdat_atl AL091966 11.3000 -38.3000 TD 25 -1 12 290
1966265N10325 1966 85 NA NA INEZ 1966-09-22 09:00:00 TS 11.5073 -38.8501 main 1586 1550 P_____________ AL091966 11.5073 -38.8501 TD 25 -1 12 290
1966265N10325 1966 85 NA NA INEZ 1966-09-22 12:00:00 TS 11.7000 -39.4000 25 hurdat_atl main 1550 1501 O_____________ hurdat_atl AL091966 11.7000 -39.4000 TD 25 -1 12 287
1966265N10325 1966 85 NA NA INEZ 1966-09-22 15:00:00 TS 11.8575 -40.0001 main 1507 1459 P_____________ AL091966 11.8575 -40.0001 TD 25 -1 12 284
1966265N10325 1966 85 NA NA INEZ 1966-09-22 18:00:00 TS 12.0000 -40.6000 25 hurdat_atl main 1459 1422 O_____________ hurdat_atl AL091966 12.0000 -40.6000 TD 25 -1 11 284
1966265N10325 1966 85 NA NA INEZ 1966-09-22 21:00:00 TS 12.1422 -41.1352 main 1422 1385 P_____________ AL091966 12.1422 -41.1352 TD 25 -1 11 286
1966265N10325 1966 85 NA NA INEZ 1966-09-23 00:00:00 TS 12.3000 -41.7000 25 hurdat_atl main 1385 1342 O_____________ hurdat_atl AL091966 12.3000 -41.7000 TD 25 -1 13 286
1966265N10325 1966 85 NA NA INEZ 1966-09-23 03:00:00 TS 12.4926 -42.3925 main 1342 1303 P_____________ AL091966 12.4926 -42.3925 TD 25 -1 14 286
1966265N10325 1966 85 NA NA INEZ 1966-09-23 06:00:00 TS 12.7000 -43.1000 25 hurdat_atl main 1303 1275 O_____________ hurdat_atl AL091966 12.7000 -43.1000 TD 25 -1 14 287
1966265N10325 1966 85 NA NA INEZ 1966-09-23 09:00:00 TS 12.9074 -43.7450 main 1275 1248 P_____________ AL091966 12.9074 -43.7450 TD 27 -1 12 289
1966265N10325 1966 85 NA NA INEZ 1966-09-23 12:00:00 TS 13.1000 -44.3000 30 hurdat_atl main 1250 1232 O_____________ hurdat_atl AL091966 13.1000 -44.3000 TD 30 -1 10 290
1966265N10325 1966 85 NA NA INEZ 1966-09-23 15:00:00 TS 13.2572 -44.7227 main 1241 1222 P_____________ AL091966 13.2572 -44.7227 TD 30 -1 8 291
1966265N10325 1966 85 NA NA INEZ 1966-09-23 18:00:00 TS 13.4000 -45.1000 30 hurdat_atl main 1225 1211 O_____________ hurdat_atl AL091966 13.4000 -45.1000 TD 30 -1 9 290
1966265N10325 1966 85 NA NA INEZ 1966-09-23 21:00:00 TS 13.5500 -45.5425 main 1211 1195 P_____________ AL091966 13.5500 -45.5425 TD 30 -1 9 289
1966265N10325 1966 85 NA NA INEZ 1966-09-24 00:00:00 TS 13.7000 -46.0000 30 hurdat_atl main 1195 1179 O_____________ hurdat_atl AL091966 13.7000 -46.0000 TD 30 -1 9 288
1966265N10325 1966 85 NA NA INEZ 1966-09-24 03:00:00 TS 13.8425 -46.4576 main 1172 1163 P_____________ AL091966 13.8425 -46.4576 TD 30 -1 9 289
1966265N10325 1966 85 NA NA INEZ 1966-09-24 06:00:00 TS 14.0000 -46.9000 30 hurdat_atl main 1167 1159 O_____________ hurdat_atl AL091966 14.0000 -46.9000 TD 30 -1 9 293
1966265N10325 1966 85 NA NA INEZ 1966-09-24 09:00:00 TS 14.1923 -47.2926 main 1163 1157 P_____________ AL091966 14.1923 -47.2926 TD 30 -1 9 297
1966265N10325 1966 85 NA NA INEZ 1966-09-24 12:00:00 TS 14.4000 -47.7000 30 1009 hurdat_atl main 1161 1156 O_____________ hurdat_atl AL091966 14.4000 -47.7000 TD 30 1009 -1 10 296
1966265N10325 1966 85 NA NA INEZ 1966-09-24 15:00:00 TS 14.6075 -48.1850 main 1157 1148 P_____________ AL091966 14.6075 -48.1850 TD 35 1008 0 10 292
1966265N10325 1966 85 NA NA INEZ 1966-09-24 18:00:00 TS 14.8000 -48.7000 40 1008 hurdat_atl main 1154 1145 O_____________ hurdat_atl AL091966 14.8000 -48.7000 TS 40 1008 0 11 290
1966265N10325 1966 85 NA NA INEZ 1966-09-24 21:00:00 TS 14.9574 -49.2076 main 1155 1141 P_____________ AL091966 14.9574 -49.2076 TS 42 0 10 287
1966265N10325 1966 85 NA NA INEZ 1966-09-25 00:00:00 TS 15.1000 -49.7000 45 hurdat_atl main 1141 1133 O_____________ hurdat_atl AL091966 15.1000 -49.7000 TS 45 0 10 288
1966265N10325 1966 85 NA NA INEZ 1966-09-25 03:00:00 TS 15.2574 -50.1575 main 1139 1131 P_____________ AL091966 15.2574 -50.1575 TS 47 0 9 289
1966265N10325 1966 85 NA NA INEZ 1966-09-25 06:00:00 TS 15.4000 -50.6000 50 hurdat_atl main 1134 1130 O_____________ hurdat_atl AL091966 15.4000 -50.6000 TS 50 0 9 287
1966265N10325 1966 85 NA NA INEZ 1966-09-25 09:00:00 TS 15.5224 -51.0425 main 1130 1125 P_____________ AL091966 15.5224 -51.0425 TS 52 0 9 283
1966265N10325 1966 85 NA NA INEZ 1966-09-25 12:00:00 TS 15.6000 -51.5000 55 1000 hurdat_atl main 1125 1112 O_____________ hurdat_atl AL091966 15.6000 -51.5000 TS 55 1000 0 9 276
1966265N10325 1966 85 NA NA INEZ 1966-09-25 15:00:00 TS 15.6149 -51.9851 main 1112 1071 P_____________ AL091966 15.6149 -51.9851 TS 57 1000 0 10 270
1966265N10325 1966 85 NA NA INEZ 1966-09-25 18:00:00 TS 15.6000 -52.5000 60 1000 hurdat_atl main 1071 1025 O_____________ hurdat_atl AL091966 15.6000 -52.5000 TS 60 1000 0 10 269
1966265N10325 1966 85 NA NA INEZ 1966-09-25 21:00:00 TS 15.5924 -53.0351 main 1025 971 P_____________ AL091966 15.5924 -53.0351 TS 60 0 11 270
1966265N10325 1966 85 NA NA INEZ 1966-09-26 00:00:00 TS 15.6000 -53.6000 60 hurdat_atl main 971 918 O_____________ hurdat_atl AL091966 15.6000 -53.6000 TS 60 0 11 273
1966265N10325 1966 85 NA NA INEZ 1966-09-26 03:00:00 TS 15.6424 -54.1925 main 918 874 P_____________ AL091966 15.6424 -54.1925 TS 60 0 12 275
1966265N10325 1966 85 NA NA INEZ 1966-09-26 06:00:00 TS 15.7000 -54.8000 60 hurdat_atl main 874 832 O_____________ hurdat_atl AL091966 15.7000 -54.8000 TS 60 0 12 276
1966265N10325 1966 85 NA NA INEZ 1966-09-26 09:00:00 TS 15.7575 -55.4150 main 832 786 P_____________ AL091966 15.7575 -55.4150 TS 65 1 12 275
1966265N10325 1966 85 NA NA INEZ 1966-09-26 12:00:00 TS 15.8000 -56.0000 70 995 hurdat_atl main 786 750 O_____________ hurdat_atl AL091966 15.8000 -56.0000 HU 70 995 1 11 272
1966265N10325 1966 85 NA NA INEZ 1966-09-26 15:00:00 TS 15.7998 -56.5151 main 750 716 P_____________ AL091966 15.7998 -56.5151 HU 72 988 1 10 270
1966265N10325 1966 85 NA NA INEZ 1966-09-26 18:00:00 TS 15.8000 -57.0000 75 982 hurdat_atl main 716 685 O_____________ hurdat_atl AL091966 15.8000 -57.0000 HU 75 982 1 9 273
1966265N10325 1966 85 NA NA INEZ 1966-09-26 21:00:00 TS 15.8423 -57.4850 main 685 666 P_____________ AL091966 15.8423 -57.4850 HU 77 977 1 10 276
1966265N10325 1966 85 NA NA INEZ 1966-09-27 00:00:00 TS 15.9000 -58.0000 80 hurdat_atl main 666 637 I_____________ hurdat_atl AL091966 15.9000 -58.0000 HU 80 973 1 11 276
1966265N10325 1966 85 NA NA INEZ 1966-09-27 03:00:00 TS 15.9500 -58.5850 main 637 624 P_____________ AL091966 15.9500 -58.5850 HU 87 969 2 12 275
1966265N10325 1966 85 NA NA INEZ 1966-09-27 06:00:00 TS 16.0000 -59.2000 95 965 hurdat_atl main 624 607 O_____________ hurdat_atl AL091966 16.0000 -59.2000 HU 95 965 2 12 275
1966265N10325 1966 85 NA NA INEZ 1966-09-27 09:00:00 TS 16.0498 -59.7925 main 607 600 P_____________ AL091966 16.0498 -59.7925 HU 100 963 3 12 275
1966265N10325 1966 85 NA CS INEZ 1966-09-27 12:00:00 TS 16.1000 -60.4000 105 961 hurdat_atl main 600 542 O_____________ hurdat_atl AL091966 16.1000 -60.4000 HU 105 961 3 12 275
1966265N10325 1966 85 NA CS INEZ 1966-09-27 15:00:00 TS 16.1499 -61.0425 main 542 470 P_____________ AL091966 16.1499 -61.0425 HU 107 961 3 13 275
1966265N10325 1966 85 NA CS INEZ 1966-09-27 18:00:00 TS 16.2000 -61.7000 110 962 hurdat_atl main 470 415 O_____________ hurdat_atl AL091966 16.2000 -61.7000 HU 110 962 3 13 274
1966265N10325 1966 85 NA CS INEZ 1966-09-27 21:00:00 TS 16.2423 -62.3501 main 407 348 P_____________ AL091966 16.2423 -62.3501 HU 110 960 3 13 275
1966265N10325 1966 85 NA CS INEZ 1966-09-28 00:00:00 TS 16.3000 -63.0000 110 hurdat_atl main 348 292 I_____________ hurdat_atl AL091966 16.3000 -63.0000 HU 110 958 3 12 277
1966265N10325 1966 85 NA CS INEZ 1966-09-28 03:00:00 TS 16.3847 -63.6426 main 292 231 P_____________ AL091966 16.3847 -63.6426 HU 112 956 3 13 279
1966265N10325 1966 85 NA CS INEZ 1966-09-28 06:00:00 TS 16.5000 -64.3000 115 955 hurdat_atl main 231 178 O_____________ hurdat_atl AL091966 16.5000 -64.3000 HU 115 955 4 13 282
1966265N10325 1966 85 NA CS INEZ 1966-09-28 09:00:00 TS 16.6498 -64.9924 main 178 134 P_____________ AL091966 16.6498 -64.9924 HU 117 949 4 14 283
1966265N10325 1966 85 NA CS INEZ 1966-09-28 12:00:00 TS 16.8000 -65.7000 120 hurdat_atl main 134 111 I_____________ hurdat_atl AL091966 16.8000 -65.7000 HU 120 943 4 14 281
1966265N10325 1966 85 NA CS INEZ 1966-09-28 15:00:00 TS 16.9148 -66.4001 main 113 100 P_____________ AL091966 16.9148 -66.4001 HU 125 937 4 14 278
1966265N10325 1966 85 NA CS INEZ 1966-09-28 18:00:00 TS 17.0000 -67.1000 130 932 hurdat_atl main 101 100 O_____________ hurdat_atl AL091966 17.0000 -67.1000 HU 130 932 4 14 276
1966265N10325 1966 85 NA CS INEZ 1966-09-28 21:00:00 TS 17.0499 -67.8152 main 119 116 P_____________ AL091966 17.0499 -67.8152 HU 130 930 4 13 274
1966265N10325 1966 85 NA CS INEZ 1966-09-29 00:00:00 TS 17.1000 -68.5000 130 929 hurdat_atl main 123 112 O_____________ hurdat_atl AL091966 17.1000 -68.5000 HU 130 929 4 13 277
1966265N10325 1966 85 NA CS INEZ 1966-09-29 03:00:00 TS 17.1922 -69.1150 main 116 113 P_____________ AL091966 17.1922 -69.1150 HU 127 4 12 280
1966265N10325 1966 85 NA CS INEZ 1966-09-29 06:00:00 TS 17.3000 -69.7000 125 hurdat_atl main 113 89 O_____________ hurdat_atl AL091966 17.3000 -69.7000 HU 125 4 11 279
1966265N10325 1966 85 NA CS INEZ 1966-09-29 09:00:00 TS 17.3697 -70.2854 main 89 54 P_____________ AL091966 17.3697 -70.2854 HU 122 4 12 280
1966265N10325 1966 85 NA CS INEZ 1966-09-29 12:00:00 TS 17.5000 -70.9000 120 hurdat_atl main 54 0 O_____________ hurdat_atl AL091966 17.5000 -70.9000 HU 120 4 13 287
1966265N10325 1966 85 NA CS INEZ 1966-09-29 15:00:00 TS 17.7625 -71.5924 main 0 0 P_____________ AL091966 17.7625 -71.5924 HU 110 3 15 294
1966265N10325 1966 85 NA CS INEZ 1966-09-29 18:00:00 TS 18.1000 -72.3000 100 hurdat_atl main 11 0 O_____________ hurdat_atl AL091966 18.1000 -72.3000 HU 100 3 15 298
1966265N10325 1966 85 NA CS INEZ 1966-09-29 21:00:00 TS 18.4575 -72.9874 main 11 11 P_____________ AL091966 18.4575 -72.9874 HU 90 2 14 300
1966265N10325 1966 85 NA CS INEZ 1966-09-30 00:00:00 TS 18.8000 -73.6000 80 987 hurdat_atl main 35 33 O_____________ hurdat_atl AL091966 18.8000 -73.6000 HU 80 987 1 12 300
1966265N10325 1966 85 NA CS INEZ 1966-09-30 03:00:00 TS 19.0646 -74.0804 main 55 55 P_____________ AL091966 19.0646 -74.0804 HU 85 2 10 300
1966265N10325 1966 85 NA CS INEZ 1966-09-30 06:00:00 TS 19.3000 -74.5000 90 hurdat_atl main 79 45 O_____________ hurdat_atl AL091966 19.3000 -74.5000 HU 90 2 10 301
1966265N10325 1966 85 NA CS INEZ 1966-09-30 09:00:00 TS 19.5574 -74.9501 main 33 11 P_____________ AL091966 19.5574 -74.9501 HU 95 2 10 301
1966265N10325 1966 85 NA CS INEZ 1966-09-30 12:00:00 TS 19.8000 -75.4000 100 hurdat_atl main 11 0 O_____________ hurdat_atl AL091966 19.8000 -75.4000 HU 100 3 10 298
1966265N10325 1966 85 NA NA INEZ 1966-09-30 15:00:00 TS 20.0149 -75.8576 main 0 0 P_____________ AL091966 20.0149 -75.8576 HU 82 1 9 295
1966265N10325 1966 85 NA NA INEZ 1966-09-30 18:00:00 TS 20.2000 -76.3000 65 hurdat_atl main 0 0 O_____________ hurdat_atl AL091966 20.2000 -76.3000 HU 65 1 9 294
1966265N10325 1966 85 NA NA INEZ 1966-09-30 21:00:00 TS 20.3572 -76.6927 main 0 0 P_____________ AL091966 20.3572 -76.6927 HU 65 1 8 292
1966265N10325 1966 85 NA CS INEZ 1966-10-01 00:00:00 TS 20.5000 -77.1000 65 hurdat_atl main 0 0 O_____________ hurdat_atl AL091966 20.5000 -77.1000 HU 65 1 9 289
1966265N10325 1966 85 NA CS INEZ 1966-10-01 03:00:00 TS 20.6425 -77.5851 main 11 0 P_____________ AL091966 20.6425 -77.5851 HU 65 1 10 288
1966265N10325 1966 85 NA NA INEZ 1966-10-01 06:00:00 TS 20.8000 -78.1000 65 hurdat_atl main 0 0 O_____________ hurdat_atl AL091966 20.8000 -78.1000 HU 65 1 10 289
1966265N10325 1966 85 NA CS INEZ 1966-10-01 09:00:00 TS 20.9700 -78.6226 main 10 10 P_____________ AL091966 20.9700 -78.6226 HU 65 1 10 293
1966265N10325 1966 85 NA CS INEZ 1966-10-01 12:00:00 TS 21.2000 -79.1000 65 hurdat_atl main 35 11 O_____________ hurdat_atl AL091966 21.2000 -79.1000 HU 65 1 10 304
1966265N10325 1966 85 NA CS INEZ 1966-10-01 15:00:00 TS 21.5274 -79.5024 main 11 0 P_____________ AL091966 21.5274 -79.5024 HU 65 1 10 317
1966265N10325 1966 85 NA NA INEZ 1966-10-01 18:00:00 TS 21.9000 -79.8000 65 hurdat_atl main 0 0 O_____________ hurdat_atl AL091966 21.9000 -79.8000 HU 65 1 9 328
1966265N10325 1966 85 NA NA INEZ 1966-10-01 21:00:00 TS 22.2724 -80.0026 main 0 0 P_____________ AL091966 22.2724 -80.0026 HU 65 1 8 338
1966265N10325 1966 85 NA NA INEZ 1966-10-02 00:00:00 TS 22.6000 -80.1000 65 hurdat_atl main 0 0 O_____________ hurdat_atl AL091966 22.6000 -80.1000 HU 65 1 6 347
1966265N10325 1966 85 NA NA INEZ 1966-10-02 03:00:00 TS 22.8300 -80.1376 main 0 0 P_____________ AL091966 22.8300 -80.1376 HU 65 1 4 0
1966265N10325 1966 85 NA NA INEZ 1966-10-02 06:00:00 TS 23.0000 -80.1000 65 hurdat_atl main 11 11 O_____________ hurdat_atl AL091966 23.0000 -80.1000 HU 65 1 3 19
1966265N10325 1966 85 NA NA INEZ 1966-10-02 09:00:00 TS 23.1275 -80.0299 main 22 22 P_____________ AL091966 23.1275 -80.0299 HU 60 0 4 31
1966265N10325 1966 85 NA NA INEZ 1966-10-02 12:00:00 TS 23.3000 -79.9000 55 hurdat_atl main 45 45 O_____________ hurdat_atl AL091966 23.3000 -79.9000 TS 55 0 6 30
1966265N10325 1966 85 NA NA INEZ 1966-10-02 15:00:00 TS 23.6275 -79.7151 main 84 84 P_____________ AL091966 23.6275 -79.7151 TS 55 0 8 28
1966265N10325 1966 85 NA NA INEZ 1966-10-02 18:00:00 TS 24.0000 -79.5000 55 999 hurdat_atl main 121 87 O_____________ hurdat_atl AL091966 24.0000 -79.5000 TS 55 999 0 8 29
1966265N10325 1966 85 NA NA INEZ 1966-10-02 21:00:00 TS 24.3300 -79.2925 main 87 60 P_____________ AL091966 24.3300 -79.2925 TS 60 997 0 7 31
1966265N10325 1966 85 NA NA INEZ 1966-10-03 00:00:00 TS 24.6000 -79.1000 65 995 hurdat_atl main 60 51 O_____________ hurdat_atl AL091966 24.6000 -79.1000 HU 65 995 1 5 36
1966265N10325 1966 85 NA NA INEZ 1966-10-03 03:00:00 TS 24.7725 -78.9423 main 46 45 P_____________ AL091966 24.7725 -78.9423 HU 65 992 1 4 42
1966265N10325 1966 85 NA NA INEZ 1966-10-03 06:00:00 TS 24.9000 -78.8000 65 989 hurdat_atl main 45 45 O_____________ hurdat_atl AL091966 24.9000 -78.8000 HU 65 989 1 4 44
1966265N10325 1966 85 NA NA INEZ 1966-10-03 09:00:00 TS 25.0575 -78.6425 main 45 41 P_____________ AL091966 25.0575 -78.6425 HU 65 987 1 4 42
1966265N10325 1966 85 NA NA INEZ 1966-10-03 12:00:00 TS 25.2000 -78.5000 65 985 hurdat_atl main 41 32 O_____________ hurdat_atl AL091966 25.2000 -78.5000 HU 65 985 1 4 45
1966265N10325 1966 85 NA NA INEZ 1966-10-03 15:00:00 TS 25.3075 -78.3700 main 37 30 P_____________ AL091966 25.3075 -78.3700 HU 67 985 1 3 42
1966265N10325 1966 85 NA NA INEZ 1966-10-03 18:00:00 TS 25.4000 -78.3000 70 986 hurdat_atl main 39 39 O_____________ hurdat_atl AL091966 25.4000 -78.3000 HU 70 986 1 2 16
1966265N10325 1966 85 NA NA INEZ 1966-10-03 21:00:00 TS 25.5224 -78.2899 main 48 48 P_____________ AL091966 25.5224 -78.2899 HU 72 985 1 2 335
1966265N10325 1966 85 NA NA INEZ 1966-10-04 00:00:00 TS 25.6000 -78.4000 75 985 hurdat_atl main 63 63 O_____________ hurdat_atl AL091966 25.6000 -78.4000 HU 75 985 1 3 280
1966265N10325 1966 85 NA NA INEZ 1966-10-04 03:00:00 TS 25.5800 -78.6550 main 82 82 P_____________ AL091966 25.5800 -78.6550 HU 75 985 1 6 260
1966265N10325 1966 85 NA NA INEZ 1966-10-04 06:00:00 TS 25.5000 -79.0000 75 hurdat_atl main 100 91 I_____________ hurdat_atl AL091966 25.5000 -79.0000 HU 75 986 1 6 255
1966265N10325 1966 85 NA NA INEZ 1966-10-04 09:00:00 TS 25.4149 -79.3349 main 91 64 P_____________ AL091966 25.4149 -79.3349 HU 75 986 1 7 252
1966265N10325 1966 85 NA NA INEZ 1966-10-04 12:00:00 TS 25.3000 -79.7000 75 987 hurdat_atl main 64 30 O_____________ hurdat_atl AL091966 25.3000 -79.7000 HU 75 987 1 7 249
1966265N10325 1966 85 NA NA INEZ 1966-10-04 15:00:00 TS 25.1575 -80.0925 main 30 0 P_____________ AL091966 25.1575 -80.0925 HU 75 985 1 8 247
1966265N10325 1966 85 NA NA INEZ 1966-10-04 18:00:00 TS 25.0000 -80.5000 75 984 hurdat_atl main 15 15 O_____________ hurdat_atl AL091966 25.0000 -80.5000 HU 75 984 1 8 246
1966265N10325 1966 85 NA NA INEZ 1966-10-04 21:00:00 TS 24.8348 -80.8925 main 39 33 P_____________ AL091966 24.8348 -80.8925 HU 75 986 1 8 248
1966265N10325 1966 85 NA NA INEZ 1966-10-05 00:00:00 TS 24.7000 -81.3000 75 988 hurdat_atl main 49 49 O_____________ hurdat_atl AL091966 24.7000 -81.3000 HU 75 988 1 8 256
1966265N10325 1966 85 NA NA INEZ 1966-10-05 03:00:00 TS 24.6350 -81.7498 main 82 82 P_____________ AL091966 24.6350 -81.7498 HU 77 986 1 8 263
1966265N10325 1966 85 NA NA INEZ 1966-10-05 06:00:00 TS 24.6000 -82.2000 80 985 hurdat_atl main 121 121 O_____________ hurdat_atl AL091966 24.6000 -82.2000 HU 80 985 1 8 264
1966265N10325 1966 85 NA NA INEZ 1966-10-05 09:00:00 TS 24.5574 -82.6224 main 156 156 P_____________ AL091966 24.5574 -82.6224 HU 80 983 1 7 262
1966265N10325 1966 85 NA GM INEZ 1966-10-05 12:00:00 TS 24.5000 -83.0000 80 hurdat_atl main 164 161 I_____________ hurdat_atl AL091966 24.5000 -83.0000 HU 80 982 1 6 257
1966265N10325 1966 85 NA GM INEZ 1966-10-05 15:00:00 TS 24.4148 -83.3074 main 164 156 P_____________ AL091966 24.4148 -83.3074 HU 82 981 1 6 250
1966265N10325 1966 85 NA GM INEZ 1966-10-05 18:00:00 TS 24.3000 -83.6000 85 980 hurdat_atl main 157 148 O_____________ hurdat_atl AL091966 24.3000 -83.6000 HU 85 980 2 6 246
1966265N10325 1966 85 NA GM INEZ 1966-10-05 21:00:00 TS 24.1575 -83.9425 main 153 143 P_____________ AL091966 24.1575 -83.9425 HU 87 975 2 7 245
1966265N10325 1966 85 NA GM INEZ 1966-10-06 00:00:00 TS 24.0000 -84.3000 90 970 hurdat_atl main 147 140 O_____________ hurdat_atl AL091966 24.0000 -84.3000 HU 90 970 2 7 245
1966265N10325 1966 85 NA GM INEZ 1966-10-06 03:00:00 TS 23.8575 -84.6574 main 151 142 P_____________ AL091966 23.8575 -84.6574 HU 92 976 2 7 245
1966265N10325 1966 85 NA GM INEZ 1966-10-06 06:00:00 TS 23.7000 -85.0000 95 983 hurdat_atl main 151 150 O_____________ hurdat_atl AL091966 23.7000 -85.0000 HU 95 983 2 7 240
1966265N10325 1966 85 NA GM INEZ 1966-10-06 09:00:00 TS 23.5149 -85.2998 main 158 158 P_____________ AL091966 23.5149 -85.2998 HU 95 978 2 7 234
1966265N10325 1966 85 NA GM INEZ 1966-10-06 12:00:00 TS 23.3000 -85.6000 95 974 hurdat_atl main 166 157 O_____________ hurdat_atl AL091966 23.3000 -85.6000 HU 95 974 2 7 232
1966265N10325 1966 85 NA GM INEZ 1966-10-06 15:00:00 TS 23.0574 -85.9274 main 162 153 P_____________ AL091966 23.0574 -85.9274 HU 97 974 3 8 232
1966265N10325 1966 85 NA GM INEZ 1966-10-06 18:00:00 TS 22.8000 -86.3000 100 974 hurdat_atl main 162 116 O_____________ hurdat_atl AL091966 22.8000 -86.3000 HU 100 974 3 9 235
1966265N10325 1966 85 NA GM INEZ 1966-10-06 21:00:00 TS 22.5275 -86.7351 main 116 89 P_____________ AL091966 22.5275 -86.7351 HU 102 967 3 10 239
1966265N10325 1966 85 NA GM INEZ 1966-10-07 00:00:00 TS 22.3000 -87.2000 105 961 hurdat_atl main 90 78 O_____________ hurdat_atl AL091966 22.3000 -87.2000 HU 105 961 3 9 248
1966265N10325 1966 85 NA GM INEZ 1966-10-07 03:00:00 TS 22.1774 -87.6497 main 78 67 P_____________ AL091966 22.1774 -87.6497 HU 107 3 9 257
1966265N10325 1966 85 NA GM INEZ 1966-10-07 06:00:00 TS 22.1000 -88.1000 110 hurdat_atl main 67 55 O_____________ hurdat_atl AL091966 22.1000 -88.1000 HU 110 3 8 258
1966265N10325 1966 85 NA GM INEZ 1966-10-07 09:00:00 TS 21.9998 -88.5424 main 55 49 P_____________ AL091966 21.9998 -88.5424 HU 110 3 9 257
1966265N10325 1966 85 NA GM INEZ 1966-10-07 12:00:00 TS 21.9000 -89.0000 110 hurdat_atl main 59 55 O_____________ hurdat_atl AL091966 21.9000 -89.0000 HU 110 3 9 257
1966265N10325 1966 85 NA GM INEZ 1966-10-07 15:00:00 TS 21.7999 -89.4924 main 59 55 P_____________ AL091966 21.7999 -89.4924 HU 112 3 10 258
1966265N10325 1966 85 NA GM INEZ 1966-10-07 18:00:00 TS 21.7000 -90.0000 115 972 hurdat_atl main 56 54 O_____________ hurdat_atl AL091966 21.7000 -90.0000 HU 115 972 4 10 257
1966265N10325 1966 85 NA GM INEZ 1966-10-07 21:00:00 TS 21.5848 -90.4926 main 59 59 P_____________ AL091966 21.5848 -90.4926 HU 115 972 4 10 258
1966265N10325 1966 85 NA GM INEZ 1966-10-08 00:00:00 TS 21.5000 -91.0000 115 972 hurdat_atl main 85 85 O_____________ hurdat_atl AL091966 21.5000 -91.0000 HU 115 972 4 10 263
1966265N10325 1966 85 NA GM INEZ 1966-10-08 03:00:00 TS 21.4625 -91.5501 main 141 141 P_____________ AL091966 21.4625 -91.5501 HU 115 967 4 10 270
1966265N10325 1966 85 NA GM INEZ 1966-10-08 06:00:00 TS 21.5000 -92.1000 115 hurdat_atl main 191 191 I_____________ hurdat_atl AL091966 21.5000 -92.1000 HU 115 962 4 10 279
1966265N10325 1966 85 NA GM INEZ 1966-10-08 09:00:00 TS 21.6274 -92.6223 main 244 244 P_____________ AL091966 21.6274 -92.6223 HU 117 957 4 10 288
1966265N10325 1966 85 NA GM INEZ 1966-10-08 12:00:00 TS 21.8000 -93.1000 120 953 hurdat_atl main 300 300 O_____________ hurdat_atl AL091966 21.8000 -93.1000 HU 120 953 4 9 292
1966265N10325 1966 85 NA GM INEZ 1966-10-08 15:00:00 TS 21.9573 -93.5226 main 345 345 P_____________ AL091966 21.9573 -93.5226 HU 120 954 4 8 292
1966265N10325 1966 85 NA GM INEZ 1966-10-08 18:00:00 TS 22.1000 -93.9000 120 956 hurdat_atl main 355 326 O_____________ hurdat_atl AL091966 22.1000 -93.9000 HU 120 956 4 7 289
1966265N10325 1966 85 NA GM INEZ 1966-10-08 21:00:00 TS 22.1999 -94.2652 main 316 289 P_____________ AL091966 22.1999 -94.2652 HU 120 952 4 7 287
1966265N10325 1966 85 NA GM INEZ 1966-10-09 00:00:00 TS 22.3000 -94.6000 120 948 hurdat_atl main 289 263 O_____________ hurdat_atl AL091966 22.3000 -94.6000 HU 120 948 4 7 293
1966265N10325 1966 85 NA GM INEZ 1966-10-09 03:00:00 TS 22.4499 -94.9150 main 263 243 P_____________ AL091966 22.4499 -94.9150 HU 120 949 4 6 298
1966265N10325 1966 85 NA GM INEZ 1966-10-09 06:00:00 TS 22.6000 -95.2000 120 951 hurdat_atl main 243 222 O_____________ hurdat_atl AL091966 22.6000 -95.2000 HU 120 951 4 6 297
1966265N10325 1966 85 NA GM INEZ 1966-10-09 09:00:00 TS 22.7075 -95.4726 main 222 212 P_____________ AL091966 22.7075 -95.4726 HU 120 951 4 5 293
1966265N10325 1966 85 NA GM INEZ 1966-10-09 12:00:00 TS 22.8000 -95.7000 120 hurdat_atl main 212 204 I_____________ hurdat_atl AL091966 22.8000 -95.7000 HU 120 952 4 4 300
1966265N10325 1966 85 NA GM INEZ 1966-10-09 15:00:00 TS 22.9149 -95.8575 main 194 184 P_____________ AL091966 22.9149 -95.8575 HU 120 952 4 3 306
1966265N10325 1966 85 NA GM INEZ 1966-10-09 18:00:00 TS 23.0000 -96.0000 120 953 hurdat_atl main 184 163 O_____________ hurdat_atl AL091966 23.0000 -96.0000 HU 120 953 4 3 289
1966265N10325 1966 85 NA GM INEZ 1966-10-09 21:00:00 TS 23.0149 -96.1701 main 163 143 P_____________ AL091966 23.0149 -96.1701 HU 117 956 4 4 270
1966265N10325 1966 85 NA GM INEZ 1966-10-10 00:00:00 TS 23.0000 -96.4000 115 960 hurdat_atl main 143 112 O_____________ hurdat_atl AL091966 23.0000 -96.4000 HU 115 960 4 5 270
1966265N10325 1966 85 NA GM INEZ 1966-10-10 03:00:00 TS 23.0150 -96.7274 main 112 71 P_____________ AL091966 23.0150 -96.7274 HU 112 961 3 6 270
1966265N10325 1966 85 NA GM INEZ 1966-10-10 06:00:00 TS 23.0000 -97.1000 110 962 hurdat_atl main 71 40 O_____________ hurdat_atl AL091966 23.0000 -97.1000 HU 110 962 3 7 263
1966265N10325 1966 85 NA GM INEZ 1966-10-10 09:00:00 TS 22.9299 -97.4500 main 40 0 P_____________ AL091966 22.9299 -97.4500 HU 107 961 3 7 253
1966265N10325 1966 85 NA GM INEZ 1966-10-10 12:00:00 TS 22.8000 -97.8000 105 961 hurdat_atl main 0 0 O_____________ hurdat_atl AL091966 22.8000 -97.8000 HU 105 961 3 7 243
1966265N10325 1966 85 NA NA INEZ 1966-10-10 15:00:00 TS 22.6074 -98.1501 main 0 0 P_____________ AL091966 22.6074 -98.1501 HU 82 1 8 238
1966265N10325 1966 85 NA NA INEZ 1966-10-10 18:00:00 TS 22.4000 -98.5000 60 hurdat_atl main 0 0 O_____________ hurdat_atl AL091966 22.4000 -98.5000 TS 60 0 7 241
1966265N10325 1966 85 NA NA INEZ 1966-10-10 21:00:00 TS 22.2424 -98.8499 main 0 0 P_____________ AL091966 22.2424 -98.8499 TS 45 0 7 245
1966265N10325 1966 85 NA NA INEZ 1966-10-11 00:00:00 TS 22.1000 -99.2000 30 hurdat_atl main 0 0 O_____________ hurdat_atl AL091966 22.1000 -99.2000 TD 30 -1 7 246
1966265N10325 1966 85 NA NA INEZ 1966-10-11 03:00:00 TS 21.9499 -99.5499 main 0 0 P_____________ AL091966 21.9499 -99.5499 TD 30 -1 7 245
1966265N10325 1966 85 NA NA INEZ 1966-10-11 06:00:00 TS 21.8000 -99.9000 30 hurdat_atl main 0 0 O_____________ hurdat_atl AL091966 21.8000 -99.9000 TD 30 -1 7 245
1966265N10325 1966 85 NA NA INEZ 1966-10-11 09:00:00 TS 21.6501 -100.250 main 0 0 P_____________ AL091966 21.6501 -100.250 TD 30 -1 7 245
1966265N10325 1966 85 NA NA INEZ 1966-10-11 12:00:00 TS 21.5000 -100.600 30 hurdat_atl main 0 O_____________ hurdat_atl AL091966 21.5000 -100.600 TD 30 -1 7 245

IBTrACS Databaseについて

本データベースは、米国NOAAが公開する1842年以降の世界の熱帯低気圧のベストトラックデータアーカイブInternational Best Track Archive for Climate Stewardship (IBTrACS)を、ウェブで閲覧しやすい形式に変換したものです。

最終更新日:2021-10-19